sensor_id;sensor_type;location;lat;lon;timestamp;P1;durP1;ratioP1;P2;durP2;ratioP2
75894;SDS011;64573;50.328;15.014;2023-05-29T00:00:12;4.50;;;1.98;;
75894;SDS011;64573;50.328;15.014;2023-05-29T00:02:43;3.83;;;2.40;;
75894;SDS011;64573;50.328;15.014;2023-05-29T00:05:10;6.57;;;2.15;;
75894;SDS011;64573;50.328;15.014;2023-05-29T00:07:37;3.70;;;1.92;;
75894;SDS011;64573;50.328;15.014;2023-05-29T00:10:04;4.85;;;1.80;;
75894;SDS011;64573;50.328;15.014;2023-05-29T00:12:30;2.95;;;1.70;;
75894;SDS011;64573;50.328;15.014;2023-05-29T00:14:55;7.57;;;2.40;;
75894;SDS011;64573;50.328;15.014;2023-05-29T00:17:22;6.28;;;2.15;;
75894;SDS011;64573;50.328;15.014;2023-05-29T00:19:47;7.35;;;2.00;;
75894;SDS011;64573;50.328;15.014;2023-05-29T00:22:13;3.75;;;1.80;;
75894;SDS011;64573;50.328;15.014;2023-05-29T00:24:38;3.22;;;1.95;;
75894;SDS011;64573;50.328;15.014;2023-05-29T00:27:03;6.40;;;2.13;;
75894;SDS011;64573;50.328;15.014;2023-05-29T00:29:29;3.30;;;1.95;;
75894;SDS011;64573;50.328;15.014;2023-05-29T00:31:54;3.55;;;1.88;;
75894;SDS011;64573;50.328;15.014;2023-05-29T00:34:22;5.68;;;2.20;;
75894;SDS011;64573;50.328;15.014;2023-05-29T00:36:51;4.50;;;2.72;;
75894;SDS011;64573;50.328;15.014;2023-05-29T00:39:17;4.60;;;1.92;;
75894;SDS011;64573;50.328;15.014;2023-05-29T00:41:42;6.35;;;3.35;;
75894;SDS011;64573;50.328;15.014;2023-05-29T00:44:07;3.47;;;1.98;;
75894;SDS011;64573;50.328;15.014;2023-05-29T00:46:33;2.95;;;1.88;;
75894;SDS011;64573;50.328;15.014;2023-05-29T00:48:59;5.20;;;1.80;;
75894;SDS011;64573;50.328;15.014;2023-05-29T00:51:26;6.43;;;2.65;;
75894;SDS011;64573;50.328;15.014;2023-05-29T00:53:54;3.50;;;1.98;;
75894;SDS011;64573;50.328;15.014;2023-05-29T00:56:22;4.38;;;2.30;;
75894;SDS011;64573;50.328;15.014;2023-05-29T00:58:48;4.03;;;2.28;;
75894;SDS011;64573;50.328;15.014;2023-05-29T01:01:16;3.53;;;1.85;;
75894;SDS011;64573;50.328;15.014;2023-05-29T01:03:43;4.15;;;2.28;;
75894;SDS011;64573;50.328;15.014;2023-05-29T01:06:08;4.07;;;1.95;;
75894;SDS011;64573;50.328;15.014;2023-05-29T01:08:35;4.38;;;1.90;;
75894;SDS011;64573;50.328;15.014;2023-05-29T01:11:03;6.68;;;2.53;;
75894;SDS011;64573;50.328;15.014;2023-05-29T01:13:37;3.58;;;2.13;;
75894;SDS011;64573;50.328;15.014;2023-05-29T01:18:39;3.28;;;2.22;;
75894;SDS011;64573;50.328;15.014;2023-05-29T01:21:27;3.17;;;2.10;;
75894;SDS011;64573;50.328;15.014;2023-05-29T01:24:09;6.13;;;2.30;;
75894;SDS011;64573;50.328;15.014;2023-05-29T01:26:48;5.60;;;2.10;;
75894;SDS011;64573;50.328;15.014;2023-05-29T01:29:15;5.72;;;1.85;;
75894;SDS011;64573;50.328;15.014;2023-05-29T01:31:45;4.07;;;1.80;;
75894;SDS011;64573;50.328;15.014;2023-05-29T01:34:11;3.75;;;2.33;;
75894;SDS011;64573;50.328;15.014;2023-05-29T01:36:36;2.92;;;1.92;;
75894;SDS011;64573;50.328;15.014;2023-05-29T01:39:02;3.55;;;2.08;;
75894;SDS011;64573;50.328;15.014;2023-05-29T01:41:28;3.47;;;2.05;;
75894;SDS011;64573;50.328;15.014;2023-05-29T01:43:57;8.18;;;2.65;;
75894;SDS011;64573;50.328;15.014;2023-05-29T01:46:24;4.28;;;2.30;;
75894;SDS011;64573;50.328;15.014;2023-05-29T01:48:53;4.00;;;2.30;;
75894;SDS011;64573;50.328;15.014;2023-05-29T01:51:20;3.70;;;2.08;;
75894;SDS011;64573;50.328;15.014;2023-05-29T01:53:45;3.72;;;2.28;;
75894;SDS011;64573;50.328;15.014;2023-05-29T01:56:11;3.88;;;2.28;;
75894;SDS011;64573;50.328;15.014;2023-05-29T01:58:36;6.32;;;2.35;;
75894;SDS011;64573;50.328;15.014;2023-05-29T02:01:03;5.75;;;2.40;;
75894;SDS011;64573;50.328;15.014;2023-05-29T02:03:31;5.63;;;2.22;;
75894;SDS011;64573;50.328;15.014;2023-05-29T02:06:00;3.70;;;2.60;;
75894;SDS011;64573;50.328;15.014;2023-05-29T02:08:26;5.00;;;2.60;;
75894;SDS011;64573;50.328;15.014;2023-05-29T02:10:53;6.00;;;2.72;;
75894;SDS011;64573;50.328;15.014;2023-05-29T02:13:19;4.93;;;2.80;;
75894;SDS011;64573;50.328;15.014;2023-05-29T02:15:45;7.22;;;2.72;;
75894;SDS011;64573;50.328;15.014;2023-05-29T02:18:12;8.75;;;3.20;;
75894;SDS011;64573;50.328;15.014;2023-05-29T02:20:39;6.10;;;3.10;;
75894;SDS011;64573;50.328;15.014;2023-05-29T02:23:05;6.60;;;2.92;;
75894;SDS011;64573;50.328;15.014;2023-05-29T02:25:30;7.00;;;2.88;;
75894;SDS011;64573;50.328;15.014;2023-05-29T02:27:56;4.90;;;2.65;;
75894;SDS011;64573;50.328;15.014;2023-05-29T02:30:21;5.47;;;2.78;;
75894;SDS011;64573;50.328;15.014;2023-05-29T02:32:47;7.32;;;3.42;;
75894;SDS011;64573;50.328;15.014;2023-05-29T02:35:12;4.38;;;2.60;;
75894;SDS011;64573;50.328;15.014;2023-05-29T02:37:42;4.53;;;2.45;;
75894;SDS011;64573;50.328;15.014;2023-05-29T02:40:07;8.20;;;3.20;;
75894;SDS011;64573;50.328;15.014;2023-05-29T02:42:38;7.40;;;2.97;;
75894;SDS011;64573;50.328;15.014;2023-05-29T02:45:03;9.70;;;2.53;;
75894;SDS011;64573;50.328;15.014;2023-05-29T02:47:30;7.82;;;2.75;;
75894;SDS011;64573;50.328;15.014;2023-05-29T02:49:55;6.63;;;2.90;;
75894;SDS011;64573;50.328;15.014;2023-05-29T02:52:20;5.32;;;3.05;;
75894;SDS011;64573;50.328;15.014;2023-05-29T02:54:48;7.13;;;3.13;;
75894;SDS011;64573;50.328;15.014;2023-05-29T02:57:13;6.82;;;3.20;;
75894;SDS011;64573;50.328;15.014;2023-05-29T02:59:38;5.20;;;2.70;;
75894;SDS011;64573;50.328;15.014;2023-05-29T03:02:04;4.32;;;2.70;;
75894;SDS011;64573;50.328;15.014;2023-05-29T03:04:30;5.82;;;3.35;;
75894;SDS011;64573;50.328;15.014;2023-05-29T03:07:03;4.38;;;2.60;;
75894;SDS011;64573;50.328;15.014;2023-05-29T03:09:28;7.57;;;2.45;;
75894;SDS011;64573;50.328;15.014;2023-05-29T03:11:54;8.48;;;3.80;;
75894;SDS011;64573;50.328;15.014;2023-05-29T03:14:19;5.90;;;3.25;;
75894;SDS011;64573;50.328;15.014;2023-05-29T03:16:46;5.85;;;3.05;;
75894;SDS011;64573;50.328;15.014;2023-05-29T03:19:12;8.30;;;3.00;;
75894;SDS011;64573;50.328;15.014;2023-05-29T03:21:37;7.47;;;3.30;;
75894;SDS011;64573;50.328;15.014;2023-05-29T03:24:03;5.78;;;2.88;;
75894;SDS011;64573;50.328;15.014;2023-05-29T03:26:29;5.28;;;3.22;;
75894;SDS011;64573;50.328;15.014;2023-05-29T03:28:54;5.90;;;3.08;;
75894;SDS011;64573;50.328;15.014;2023-05-29T03:31:22;3.40;;;2.47;;
75894;SDS011;64573;50.328;15.014;2023-05-29T03:33:48;7.57;;;2.90;;
75894;SDS011;64573;50.328;15.014;2023-05-29T03:36:14;9.77;;;3.38;;
75894;SDS011;64573;50.328;15.014;2023-05-29T03:38:42;5.38;;;3.30;;
75894;SDS011;64573;50.328;15.014;2023-05-29T03:41:08;6.50;;;3.15;;
75894;SDS011;64573;50.328;15.014;2023-05-29T03:43:33;7.75;;;3.13;;
75894;SDS011;64573;50.328;15.014;2023-05-29T03:45:58;6.30;;;2.90;;
75894;SDS011;64573;50.328;15.014;2023-05-29T03:48:23;5.88;;;2.90;;
75894;SDS011;64573;50.328;15.014;2023-05-29T03:50:49;7.82;;;2.80;;
75894;SDS011;64573;50.328;15.014;2023-05-29T03:53:14;4.28;;;2.65;;
75894;SDS011;64573;50.328;15.014;2023-05-29T03:55:40;7.80;;;3.20;;
75894;SDS011;64573;50.328;15.014;2023-05-29T03:58:05;4.45;;;2.60;;
75894;SDS011;64573;50.328;15.014;2023-05-29T04:00:31;4.45;;;2.95;;
75894;SDS011;64573;50.328;15.014;2023-05-29T04:02:56;7.25;;;2.60;;
75894;SDS011;64573;50.328;15.014;2023-05-29T04:05:22;7.13;;;3.00;;
75894;SDS011;64573;50.328;15.014;2023-05-29T04:07:47;4.07;;;2.53;;
75894;SDS011;64573;50.328;15.014;2023-05-29T04:10:13;4.57;;;2.60;;
75894;SDS011;64573;50.328;15.014;2023-05-29T04:12:39;6.18;;;2.70;;
75894;SDS011;64573;50.328;15.014;2023-05-29T04:15:05;6.10;;;3.05;;
75894;SDS011;64573;50.328;15.014;2023-05-29T04:17:31;7.20;;;2.70;;
75894;SDS011;64573;50.328;15.014;2023-05-29T04:19:56;7.30;;;2.67;;
75894;SDS011;64573;50.328;15.014;2023-05-29T04:22:21;4.20;;;2.53;;
75894;SDS011;64573;50.328;15.014;2023-05-29T04:24:47;4.32;;;2.47;;
75894;SDS011;64573;50.328;15.014;2023-05-29T04:27:12;3.72;;;2.30;;
75894;SDS011;64573;50.328;15.014;2023-05-29T04:29:41;7.72;;;2.80;;
75894;SDS011;64573;50.328;15.014;2023-05-29T04:32:07;5.28;;;2.60;;
75894;SDS011;64573;50.328;15.014;2023-05-29T04:34:35;4.32;;;2.50;;
75894;SDS011;64573;50.328;15.014;2023-05-29T04:37:03;4.70;;;2.50;;
75894;SDS011;64573;50.328;15.014;2023-05-29T04:39:29;4.53;;;2.47;;
75894;SDS011;64573;50.328;15.014;2023-05-29T04:41:55;5.57;;;2.60;;
75894;SDS011;64573;50.328;15.014;2023-05-29T04:44:23;4.00;;;2.60;;
75894;SDS011;64573;50.328;15.014;2023-05-29T04:46:51;6.22;;;2.53;;
75894;SDS011;64573;50.328;15.014;2023-05-29T04:49:17;8.88;;;2.40;;
75894;SDS011;64573;50.328;15.014;2023-05-29T04:51:43;4.20;;;2.90;;
75894;SDS011;64573;50.328;15.014;2023-05-29T04:54:10;6.82;;;2.72;;
75894;SDS011;64573;50.328;15.014;2023-05-29T04:56:36;3.83;;;2.30;;
75894;SDS011;64573;50.328;15.014;2023-05-29T04:59:01;5.43;;;2.17;;
75894;SDS011;64573;50.328;15.014;2023-05-29T05:01:27;5.47;;;2.33;;
75894;SDS011;64573;50.328;15.014;2023-05-29T05:03:53;7.03;;;2.80;;
75894;SDS011;64573;50.328;15.014;2023-05-29T05:06:21;5.65;;;2.70;;
75894;SDS011;64573;50.328;15.014;2023-05-29T05:08:47;8.57;;;2.63;;
75894;SDS011;64573;50.328;15.014;2023-05-29T05:11:12;5.03;;;2.40;;
75894;SDS011;64573;50.328;15.014;2023-05-29T05:13:38;4.88;;;2.65;;
75894;SDS011;64573;50.328;15.014;2023-05-29T05:16:04;5.80;;;2.60;;
75894;SDS011;64573;50.328;15.014;2023-05-29T05:18:29;4.68;;;2.80;;
75894;SDS011;64573;50.328;15.014;2023-05-29T05:20:55;6.90;;;2.78;;
75894;SDS011;64573;50.328;15.014;2023-05-29T05:23:20;8.20;;;2.75;;
75894;SDS011;64573;50.328;15.014;2023-05-29T05:25:46;6.80;;;2.38;;
75894;SDS011;64573;50.328;15.014;2023-05-29T05:28:11;3.78;;;2.40;;
75894;SDS011;64573;50.328;15.014;2023-05-29T05:30:38;4.43;;;2.50;;
75894;SDS011;64573;50.328;15.014;2023-05-29T05:33:03;3.65;;;2.40;;
75894;SDS011;64573;50.328;15.014;2023-05-29T05:35:28;3.85;;;2.30;;
75894;SDS011;64573;50.328;15.014;2023-05-29T05:37:54;3.58;;;2.10;;
75894;SDS011;64573;50.328;15.014;2023-05-29T05:40:22;7.80;;;2.47;;
75894;SDS011;64573;50.328;15.014;2023-05-29T05:42:48;4.25;;;2.40;;
75894;SDS011;64573;50.328;15.014;2023-05-29T05:45:13;6.50;;;2.58;;
75894;SDS011;64573;50.328;15.014;2023-05-29T05:47:39;3.92;;;2.35;;
75894;SDS011;64573;50.328;15.014;2023-05-29T05:50:04;5.35;;;2.40;;
75894;SDS011;64573;50.328;15.014;2023-05-29T05:52:30;5.18;;;2.35;;
75894;SDS011;64573;50.328;15.014;2023-05-29T05:54:57;4.53;;;2.33;;
75894;SDS011;64573;50.328;15.014;2023-05-29T05:57:23;4.18;;;2.45;;
75894;SDS011;64573;50.328;15.014;2023-05-29T05:59:48;4.35;;;2.05;;
75894;SDS011;64573;50.328;15.014;2023-05-29T06:02:13;7.53;;;2.00;;
75894;SDS011;64573;50.328;15.014;2023-05-29T06:04:39;6.90;;;2.30;;
75894;SDS011;64573;50.328;15.014;2023-05-29T06:07:05;8.57;;;2.17;;
75894;SDS011;64573;50.328;15.014;2023-05-29T06:09:31;4.90;;;2.17;;
75894;SDS011;64573;50.328;15.014;2023-05-29T06:11:56;7.78;;;2.55;;
75894;SDS011;64573;50.328;15.014;2023-05-29T06:14:22;4.82;;;2.38;;
75894;SDS011;64573;50.328;15.014;2023-05-29T06:16:48;5.72;;;2.40;;
75894;SDS011;64573;50.328;15.014;2023-05-29T06:19:14;7.80;;;2.55;;
75894;SDS011;64573;50.328;15.014;2023-05-29T06:21:40;3.88;;;2.30;;
75894;SDS011;64573;50.328;15.014;2023-05-29T06:24:05;4.43;;;2.40;;
75894;SDS011;64573;50.328;15.014;2023-05-29T06:26:31;4.50;;;2.17;;
75894;SDS011;64573;50.328;15.014;2023-05-29T06:28:57;4.60;;;2.40;;
75894;SDS011;64573;50.328;15.014;2023-05-29T06:31:22;6.95;;;2.60;;
75894;SDS011;64573;50.328;15.014;2023-05-29T06:33:48;4.45;;;2.17;;
75894;SDS011;64573;50.328;15.014;2023-05-29T06:36:13;4.28;;;2.17;;
75894;SDS011;64573;50.328;15.014;2023-05-29T06:38:38;8.20;;;2.50;;
75894;SDS011;64573;50.328;15.014;2023-05-29T06:41:04;6.05;;;2.20;;
75894;SDS011;64573;50.328;15.014;2023-05-29T06:43:29;6.10;;;2.30;;
75894;SDS011;64573;50.328;15.014;2023-05-29T06:45:55;5.80;;;2.80;;
75894;SDS011;64573;50.328;15.014;2023-05-29T06:48:20;3.75;;;2.30;;
75894;SDS011;64573;50.328;15.014;2023-05-29T06:50:47;6.63;;;2.50;;
75894;SDS011;64573;50.328;15.014;2023-05-29T06:53:12;5.32;;;2.50;;
75894;SDS011;64573;50.328;15.014;2023-05-29T06:55:38;4.05;;;2.53;;
75894;SDS011;64573;50.328;15.014;2023-05-29T06:58:05;11.60;;;2.83;;
75894;SDS011;64573;50.328;15.014;2023-05-29T07:00:30;5.15;;;2.58;;
75894;SDS011;64573;50.328;15.014;2023-05-29T07:02:56;6.63;;;2.60;;
75894;SDS011;64573;50.328;15.014;2023-05-29T07:05:21;6.22;;;2.55;;
75894;SDS011;64573;50.328;15.014;2023-05-29T07:07:47;7.93;;;2.58;;
75894;SDS011;64573;50.328;15.014;2023-05-29T07:10:12;9.13;;;2.80;;
75894;SDS011;64573;50.328;15.014;2023-05-29T07:12:38;8.05;;;2.67;;
75894;SDS011;64573;50.328;15.014;2023-05-29T07:15:03;7.50;;;2.50;;
75894;SDS011;64573;50.328;15.014;2023-05-29T07:17:29;6.43;;;2.67;;
75894;SDS011;64573;50.328;15.014;2023-05-29T07:19:54;7.45;;;2.75;;
75894;SDS011;64573;50.328;15.014;2023-05-29T07:22:20;5.97;;;2.70;;
75894;SDS011;64573;50.328;15.014;2023-05-29T07:24:46;7.40;;;2.45;;
75894;SDS011;64573;50.328;15.014;2023-05-29T07:27:11;8.98;;;2.40;;
75894;SDS011;64573;50.328;15.014;2023-05-29T07:29:36;6.80;;;2.58;;
75894;SDS011;64573;50.328;15.014;2023-05-29T07:32:02;8.10;;;2.30;;
75894;SDS011;64573;50.328;15.014;2023-05-29T07:34:27;6.18;;;2.08;;
75894;SDS011;64573;50.328;15.014;2023-05-29T07:37:03;5.78;;;2.10;;
75894;SDS011;64573;50.328;15.014;2023-05-29T07:39:32;3.63;;;1.88;;
75894;SDS011;64573;50.328;15.014;2023-05-29T07:42:00;7.03;;;2.55;;
75894;SDS011;64573;50.328;15.014;2023-05-29T07:44:28;5.20;;;2.22;;
75894;SDS011;64573;50.328;15.014;2023-05-29T07:46:54;3.53;;;2.17;;
75894;SDS011;64573;50.328;15.014;2023-05-29T07:49:20;6.07;;;2.20;;
75894;SDS011;64573;50.328;15.014;2023-05-29T07:51:45;7.32;;;2.08;;
75894;SDS011;64573;50.328;15.014;2023-05-29T07:54:11;6.45;;;2.13;;
75894;SDS011;64573;50.328;15.014;2023-05-29T07:56:37;4.13;;;2.10;;
75894;SDS011;64573;50.328;15.014;2023-05-29T07:59:03;3.47;;;1.70;;
75894;SDS011;64573;50.328;15.014;2023-05-29T08:01:30;4.13;;;1.80;;
75894;SDS011;64573;50.328;15.014;2023-05-29T08:03:55;6.07;;;1.92;;
75894;SDS011;64573;50.328;15.014;2023-05-29T08:06:21;5.97;;;1.80;;
75894;SDS011;64573;50.328;15.014;2023-05-29T08:08:46;5.05;;;1.52;;
75894;SDS011;64573;50.328;15.014;2023-05-29T08:11:12;2.80;;;1.80;;
75894;SDS011;64573;50.328;15.014;2023-05-29T08:13:37;2.72;;;1.50;;
75894;SDS011;64573;50.328;15.014;2023-05-29T08:16:03;2.00;;;1.30;;
75894;SDS011;64573;50.328;15.014;2023-05-29T08:18:30;4.85;;;1.77;;
75894;SDS011;64573;50.328;15.014;2023-05-29T08:20:56;4.40;;;1.70;;
75894;SDS011;64573;50.328;15.014;2023-05-29T08:23:21;4.97;;;1.60;;
75894;SDS011;64573;50.328;15.014;2023-05-29T08:25:47;3.05;;;1.70;;
75894;SDS011;64573;50.328;15.014;2023-05-29T08:28:13;4.35;;;1.80;;
75894;SDS011;64573;50.328;15.014;2023-05-29T08:30:39;2.67;;;1.70;;
75894;SDS011;64573;50.328;15.014;2023-05-29T08:33:05;4.03;;;1.80;;
75894;SDS011;64573;50.328;15.014;2023-05-29T08:35:30;5.90;;;1.80;;
75894;SDS011;64573;50.328;15.014;2023-05-29T08:37:55;4.88;;;1.60;;
75894;SDS011;64573;50.328;15.014;2023-05-29T08:40:21;4.55;;;1.63;;
75894;SDS011;64573;50.328;15.014;2023-05-29T08:42:47;2.58;;;1.67;;
75894;SDS011;64573;50.328;15.014;2023-05-29T08:45:16;3.75;;;1.55;;
75894;SDS011;64573;50.328;15.014;2023-05-29T08:47:44;3.55;;;1.65;;
75894;SDS011;64573;50.328;15.014;2023-05-29T08:50:12;3.35;;;1.60;;
75894;SDS011;64573;50.328;15.014;2023-05-29T08:52:39;2.28;;;1.40;;
75894;SDS011;64573;50.328;15.014;2023-05-29T08:55:06;4.10;;;1.45;;
75894;SDS011;64573;50.328;15.014;2023-05-29T08:57:31;3.45;;;1.60;;
75894;SDS011;64573;50.328;15.014;2023-05-29T08:59:57;2.85;;;1.85;;
75894;SDS011;64573;50.328;15.014;2023-05-29T09:02:23;4.63;;;1.98;;
75894;SDS011;64573;50.328;15.014;2023-05-29T09:04:48;4.03;;;1.67;;
75894;SDS011;64573;50.328;15.014;2023-05-29T09:07:17;7.43;;;1.85;;
75894;SDS011;64573;50.328;15.014;2023-05-29T09:09:44;4.28;;;1.70;;
75894;SDS011;64573;50.328;15.014;2023-05-29T09:12:13;3.55;;;1.70;;
75894;SDS011;64573;50.328;15.014;2023-05-29T09:14:40;5.68;;;1.88;;
75894;SDS011;64573;50.328;15.014;2023-05-29T09:17:09;7.57;;;1.75;;
75894;SDS011;64573;50.328;15.014;2023-05-29T09:19:36;4.40;;;1.50;;
75894;SDS011;64573;50.328;15.014;2023-05-29T09:22:07;3.03;;;1.63;;
75894;SDS011;64573;50.328;15.014;2023-05-29T09:24:35;4.47;;;1.80;;
75894;SDS011;64573;50.328;15.014;2023-05-29T09:27:02;4.60;;;1.63;;
75894;SDS011;64573;50.328;15.014;2023-05-29T09:29:32;5.63;;;2.00;;
75894;SDS011;64573;50.328;15.014;2023-05-29T09:32:08;3.25;;;1.70;;
75894;SDS011;64573;50.328;15.014;2023-05-29T09:34:37;4.20;;;1.70;;
75894;SDS011;64573;50.328;15.014;2023-05-29T09:37:04;9.15;;;1.83;;
75894;SDS011;64573;50.328;15.014;2023-05-29T09:39:44;5.75;;;1.60;;
75894;SDS011;64573;50.328;15.014;2023-05-29T09:42:11;5.20;;;1.48;;
75894;SDS011;64573;50.328;15.014;2023-05-29T09:44:36;7.20;;;1.60;;
75894;SDS011;64573;50.328;15.014;2023-05-29T09:47:02;3.40;;;1.70;;
75894;SDS011;64573;50.328;15.014;2023-05-29T09:49:28;3.33;;;1.60;;
75894;SDS011;64573;50.328;15.014;2023-05-29T09:51:54;7.68;;;1.60;;
75894;SDS011;64573;50.328;15.014;2023-05-29T09:54:19;5.22;;;1.60;;
75894;SDS011;64573;50.328;15.014;2023-05-29T09:56:45;4.75;;;1.98;;
75894;SDS011;64573;50.328;15.014;2023-05-29T09:59:14;4.43;;;1.60;;
75894;SDS011;64573;50.328;15.014;2023-05-29T10:01:41;3.42;;;1.60;;
75894;SDS011;64573;50.328;15.014;2023-05-29T10:04:09;5.60;;;1.92;;
75894;SDS011;64573;50.328;15.014;2023-05-29T10:06:35;4.50;;;1.67;;
75894;SDS011;64573;50.328;15.014;2023-05-29T10:09:02;3.85;;;1.77;;
75894;SDS011;64573;50.328;15.014;2023-05-29T10:11:30;2.42;;;1.50;;
75894;SDS011;64573;50.328;15.014;2023-05-29T10:13:58;2.70;;;1.50;;
75894;SDS011;64573;50.328;15.014;2023-05-29T10:16:25;4.35;;;1.70;;
75894;SDS011;64573;50.328;15.014;2023-05-29T10:18:55;3.85;;;1.80;;
75894;SDS011;64573;50.328;15.014;2023-05-29T10:21:22;4.10;;;1.67;;
75894;SDS011;64573;50.328;15.014;2023-05-29T10:23:51;2.65;;;1.50;;
75894;SDS011;64573;50.328;15.014;2023-05-29T10:26:21;6.72;;;1.98;;
75894;SDS011;64573;50.328;15.014;2023-05-29T10:28:55;5.45;;;1.70;;
75894;SDS011;64573;50.328;15.014;2023-05-29T10:31:52;6.78;;;1.63;;
75894;SDS011;64573;50.328;15.014;2023-05-29T10:37:02;5.63;;;1.73;;
75894;SDS011;64573;50.328;15.014;2023-05-29T10:39:32;8.25;;;1.80;;
75894;SDS011;64573;50.328;15.014;2023-05-29T10:41:58;1.95;;;1.30;;
75894;SDS011;64573;50.328;15.014;2023-05-29T10:44:45;5.30;;;1.60;;
75894;SDS011;64573;50.328;15.014;2023-05-29T10:47:10;4.38;;;1.63;;
75894;SDS011;64573;50.328;15.014;2023-05-29T10:49:37;10.40;;;1.70;;
75894;SDS011;64573;50.328;15.014;2023-05-29T10:52:03;8.88;;;1.80;;
75894;SDS011;64573;50.328;15.014;2023-05-29T10:54:30;8.23;;;2.10;;
75894;SDS011;64573;50.328;15.014;2023-05-29T10:57:05;3.85;;;1.20;;
75894;SDS011;64573;50.328;15.014;2023-05-29T10:59:37;2.38;;;1.40;;
75894;SDS011;64573;50.328;15.014;2023-05-29T11:02:03;4.18;;;1.65;;
75894;SDS011;64573;50.328;15.014;2023-05-29T11:04:29;3.28;;;1.70;;
75894;SDS011;64573;50.328;15.014;2023-05-29T11:06:56;2.95;;;1.40;;
75894;SDS011;64573;50.328;15.014;2023-05-29T11:09:32;4.20;;;1.63;;
75894;SDS011;64573;50.328;15.014;2023-05-29T11:15:02;6.32;;;1.60;;
75894;SDS011;64573;50.328;15.014;2023-05-29T11:17:28;3.08;;;1.95;;
75894;SDS011;64573;50.328;15.014;2023-05-29T11:20:00;2.60;;;1.60;;
75894;SDS011;64573;50.328;15.014;2023-05-29T11:22:33;4.37;;;1.47;;
75894;SDS011;64573;50.328;15.014;2023-05-29T11:25:41;4.18;;;1.52;;
75894;SDS011;64573;50.328;15.014;2023-05-29T11:28:09;4.72;;;1.70;;
75894;SDS011;64573;50.328;15.014;2023-05-29T11:33:08;5.22;;;1.80;;
75894;SDS011;64573;50.328;15.014;2023-05-29T11:35:44;4.38;;;1.60;;
75894;SDS011;64573;50.328;15.014;2023-05-29T11:38:11;3.25;;;1.50;;
75894;SDS011;64573;50.328;15.014;2023-05-29T11:40:36;3.83;;;1.73;;
75894;SDS011;64573;50.328;15.014;2023-05-29T11:43:03;3.45;;;1.60;;
75894;SDS011;64573;50.328;15.014;2023-05-29T11:45:31;1.90;;;1.48;;
75894;SDS011;64573;50.328;15.014;2023-05-29T11:47:59;8.05;;;1.52;;
75894;SDS011;64573;50.328;15.014;2023-05-29T11:50:27;4.63;;;1.90;;
75894;SDS011;64573;50.328;15.014;2023-05-29T11:52:53;3.53;;;1.60;;
75894;SDS011;64573;50.328;15.014;2023-05-29T11:55:20;4.72;;;1.40;;
75894;SDS011;64573;50.328;15.014;2023-05-29T11:57:47;3.03;;;1.48;;
75894;SDS011;64573;50.328;15.014;2023-05-29T12:00:17;2.72;;;1.73;;
75894;SDS011;64573;50.328;15.014;2023-05-29T12:02:44;3.58;;;1.65;;
75894;SDS011;64573;50.328;15.014;2023-05-29T12:05:12;3.40;;;1.50;;
75894;SDS011;64573;50.328;15.014;2023-05-29T12:07:46;4.90;;;1.90;;
75894;SDS011;64573;50.328;15.014;2023-05-29T12:10:13;3.42;;;1.48;;
75894;SDS011;64573;50.328;15.014;2023-05-29T12:12:40;6.03;;;1.77;;
75894;SDS011;64573;50.328;15.014;2023-05-29T12:15:06;3.42;;;1.60;;
75894;SDS011;64573;50.328;15.014;2023-05-29T12:17:33;3.47;;;1.40;;
75894;SDS011;64573;50.328;15.014;2023-05-29T12:19:59;3.88;;;1.52;;
75894;SDS011;64573;50.328;15.014;2023-05-29T12:22:34;4.78;;;1.80;;
75894;SDS011;64573;50.328;15.014;2023-05-29T12:27:38;3.20;;;1.40;;
75894;SDS011;64573;50.328;15.014;2023-05-29T12:30:11;3.53;;;1.90;;
75894;SDS011;64573;50.328;15.014;2023-05-29T12:32:42;8.27;;;1.85;;
75894;SDS011;64573;50.328;15.014;2023-05-29T12:35:15;5.47;;;1.50;;
75894;SDS011;64573;50.328;15.014;2023-05-29T12:37:50;4.20;;;1.58;;
75894;SDS011;64573;50.328;15.014;2023-05-29T12:45:24;3.90;;;1.80;;
75894;SDS011;64573;50.328;15.014;2023-05-29T12:47:57;3.97;;;1.67;;
75894;SDS011;64573;50.328;15.014;2023-05-29T12:50:30;6.55;;;1.60;;
75894;SDS011;64573;50.328;15.014;2023-05-29T12:53:12;2.97;;;1.60;;
75894;SDS011;64573;50.328;15.014;2023-05-29T12:55:40;4.72;;;1.40;;
75894;SDS011;64573;50.328;15.014;2023-05-29T12:58:08;3.45;;;1.60;;
75894;SDS011;64573;50.328;15.014;2023-05-29T13:00:35;5.22;;;1.58;;
75894;SDS011;64573;50.328;15.014;2023-05-29T13:03:03;2.85;;;1.40;;
75894;SDS011;64573;50.328;15.014;2023-05-29T13:05:29;4.13;;;1.70;;
75894;SDS011;64573;50.328;15.014;2023-05-29T13:07:54;2.85;;;1.48;;
75894;SDS011;64573;50.328;15.014;2023-05-29T13:10:20;2.55;;;1.30;;
75894;SDS011;64573;50.328;15.014;2023-05-29T13:12:46;1.50;;;1.40;;
75894;SDS011;64573;50.328;15.014;2023-05-29T13:15:13;7.93;;;1.77;;
75894;SDS011;64573;50.328;15.014;2023-05-29T13:17:39;7.68;;;1.88;;
75894;SDS011;64573;50.328;15.014;2023-05-29T13:20:09;3.08;;;1.70;;
75894;SDS011;64573;50.328;15.014;2023-05-29T13:22:36;4.78;;;1.73;;
75894;SDS011;64573;50.328;15.014;2023-05-29T13:25:05;3.60;;;1.58;;
75894;SDS011;64573;50.328;15.014;2023-05-29T13:27:36;3.65;;;1.60;;
75894;SDS011;64573;50.328;15.014;2023-05-29T13:30:03;3.15;;;1.65;;
75894;SDS011;64573;50.328;15.014;2023-05-29T13:32:30;3.25;;;1.80;;
75894;SDS011;64573;50.328;15.014;2023-05-29T13:34:55;4.70;;;1.90;;
75894;SDS011;64573;50.328;15.014;2023-05-29T13:37:21;4.72;;;1.58;;
75894;SDS011;64573;50.328;15.014;2023-05-29T13:39:46;4.65;;;1.90;;
75894;SDS011;64573;50.328;15.014;2023-05-29T13:42:12;3.63;;;1.77;;
75894;SDS011;64573;50.328;15.014;2023-05-29T13:44:37;2.80;;;1.70;;
75894;SDS011;64573;50.328;15.014;2023-05-29T13:47:05;2.50;;;1.50;;
75894;SDS011;64573;50.328;15.014;2023-05-29T13:49:31;4.82;;;1.80;;
75894;SDS011;64573;50.328;15.014;2023-05-29T13:51:57;3.72;;;1.60;;
75894;SDS011;64573;50.328;15.014;2023-05-29T13:54:22;2.47;;;1.40;;
75894;SDS011;64573;50.328;15.014;2023-05-29T13:56:48;4.35;;;1.50;;
75894;SDS011;64573;50.328;15.014;2023-05-29T13:59:13;4.13;;;1.70;;
75894;SDS011;64573;50.328;15.014;2023-05-29T14:01:40;2.90;;;1.90;;
75894;SDS011;64573;50.328;15.014;2023-05-29T14:04:05;7.05;;;1.70;;
75894;SDS011;64573;50.328;15.014;2023-05-29T14:06:30;5.03;;;1.88;;
75894;SDS011;64573;50.328;15.014;2023-05-29T14:08:57;5.45;;;1.70;;
75894;SDS011;64573;50.328;15.014;2023-05-29T14:11:22;5.82;;;1.85;;
75894;SDS011;64573;50.328;15.014;2023-05-29T14:13:48;3.42;;;1.83;;
75894;SDS011;64573;50.328;15.014;2023-05-29T14:16:13;3.63;;;1.58;;
75894;SDS011;64573;50.328;15.014;2023-05-29T14:18:40;6.13;;;1.70;;
75894;SDS011;64573;50.328;15.014;2023-05-29T14:21:06;5.57;;;1.92;;
75894;SDS011;64573;50.328;15.014;2023-05-29T14:23:32;4.63;;;1.90;;
75894;SDS011;64573;50.328;15.014;2023-05-29T14:25:59;3.22;;;1.80;;
75894;SDS011;64573;50.328;15.014;2023-05-29T14:28:24;2.83;;;1.90;;
75894;SDS011;64573;50.328;15.014;2023-05-29T14:30:50;7.35;;;1.83;;
75894;SDS011;64573;50.328;15.014;2023-05-29T14:33:15;3.47;;;1.60;;
75894;SDS011;64573;50.328;15.014;2023-05-29T14:35:40;4.97;;;1.95;;
75894;SDS011;64573;50.328;15.014;2023-05-29T14:38:06;3.63;;;1.80;;
75894;SDS011;64573;50.328;15.014;2023-05-29T14:40:31;5.70;;;1.80;;
75894;SDS011;64573;50.328;15.014;2023-05-29T14:42:56;4.78;;;2.08;;
75894;SDS011;64573;50.328;15.014;2023-05-29T14:45:22;3.90;;;1.73;;
75894;SDS011;64573;50.328;15.014;2023-05-29T14:47:47;4.40;;;1.60;;
75894;SDS011;64573;50.328;15.014;2023-05-29T14:50:13;4.05;;;1.60;;